sensor_id;sensor_type;location;lat;lon;timestamp;pressure;altitude;pressure_sealevel;temperature;humidity
45621;BME280;31345;51.522;10.702;2023-01-15T00:00:19;97282.44;;;9.08;100.00
45621;BME280;31345;51.522;10.702;2023-01-15T00:02:52;97269.81;;;9.14;100.00
45621;BME280;31345;51.522;10.702;2023-01-15T00:05:25;97271.06;;;9.09;100.00
45621;BME280;31345;51.522;10.702;2023-01-15T00:07:57;97236.06;;;9.12;100.00
45621;BME280;31345;51.522;10.702;2023-01-15T00:10:30;97240.16;;;9.15;100.00
45621;BME280;31345;51.522;10.702;2023-01-15T00:12:58;97243.22;;;9.20;100.00
45621;BME280;31345;51.522;10.702;2023-01-15T00:15:31;97224.81;;;9.11;100.00
45621;BME280;31345;51.522;10.702;2023-01-15T00:18:04;97228.25;;;9.12;100.00
45621;BME280;31345;51.522;10.702;2023-01-15T00:20:36;97233.72;;;9.19;100.00
45621;BME280;31345;51.522;10.702;2023-01-15T00:23:09;97229.34;;;9.19;100.00
45621;BME280;31345;51.522;10.702;2023-01-15T00:25:56;97228.50;;;9.19;100.00
45621;BME280;31345;51.522;10.702;2023-01-15T00:28:53;97231.09;;;9.19;100.00
45621;BME280;31345;51.522;10.702;2023-01-15T00:31:26;97236.75;;;9.34;100.00
45621;BME280;31345;51.522;10.702;2023-01-15T00:33:59;97218.34;;;9.35;100.00
45621;BME280;31345;51.522;10.702;2023-01-15T00:36:32;97222.88;;;9.23;100.00
45621;BME280;31345;51.522;10.702;2023-01-15T00:39:04;97223.97;;;9.31;100.00
45621;BME280;31345;51.522;10.702;2023-01-15T00:41:37;97228.34;;;9.40;100.00
45621;BME280;31345;51.522;10.702;2023-01-15T00:44:11;97217.09;;;9.40;100.00
45621;BME280;31345;51.522;10.702;2023-01-15T00:46:44;97218.34;;;9.35;100.00
45621;BME280;31345;51.522;10.702;2023-01-15T00:49:17;97228.78;;;9.45;100.00
45621;BME280;31345;51.522;10.702;2023-01-15T00:51:50;97225.31;;;9.45;100.00
45621;BME280;31345;51.522;10.702;2023-01-15T00:54:23;97218.16;;;9.47;100.00
45621;BME280;31345;51.522;10.702;2023-01-15T00:56:57;97221.75;;;9.46;100.00
45621;BME280;31345;51.522;10.702;2023-01-15T00:59:26;97225.47;;;9.43;100.00
45621;BME280;31345;51.522;10.702;2023-01-15T01:01:59;97221.47;;;9.49;100.00
45621;BME280;31345;51.522;10.702;2023-01-15T01:04:32;97233.00;;;9.46;100.00
45621;BME280;31345;51.522;10.702;2023-01-15T01:07:04;97233.81;;;9.47;100.00
45621;BME280;31345;51.522;10.702;2023-01-15T01:09:37;97233.69;;;9.38;100.00
45621;BME280;31345;51.522;10.702;2023-01-15T01:12:10;97239.88;;;9.37;100.00
45621;BME280;31345;51.522;10.702;2023-01-15T01:14:43;97241.25;;;9.42;100.00
45621;BME280;31345;51.522;10.702;2023-01-15T01:17:16;97240.59;;;9.40;100.00
45621;BME280;31345;51.522;10.702;2023-01-15T01:19:49;97237.00;;;9.41;100.00
45621;BME280;31345;51.522;10.702;2023-01-15T01:22:21;97234.28;;;9.32;100.00
45621;BME280;31345;51.522;10.702;2023-01-15T01:24:54;97223.84;;;9.32;100.00
45621;BME280;31345;51.522;10.702;2023-01-15T01:27:27;97235.06;;;9.33;100.00
45621;BME280;31345;51.522;10.702;2023-01-15T01:29:56;97237.00;;;9.31;100.00
45621;BME280;31345;51.522;10.702;2023-01-15T01:32:23;97233.56;;;9.30;100.00
45621;BME280;31345;51.522;10.702;2023-01-15T01:34:56;97247.84;;;9.46;100.00
45621;BME280;31345;51.522;10.702;2023-01-15T01:37:28;97271.03;;;9.49;100.00
45621;BME280;31345;51.522;10.702;2023-01-15T01:39:56;97250.91;;;9.21;100.00
45621;BME280;31345;51.522;10.702;2023-01-15T01:42:28;97251.28;;;8.97;100.00
45621;BME280;31345;51.522;10.702;2023-01-15T01:45:13;97259.81;;;8.89;100.00
45621;BME280;31345;51.522;10.702;2023-01-15T01:47:51;97259.78;;;8.69;100.00
45621;BME280;31345;51.522;10.702;2023-01-15T01:50:20;97253.19;;;8.55;100.00
45621;BME280;31345;51.522;10.702;2023-01-15T01:52:55;97251.00;;;8.60;100.00
45621;BME280;31345;51.522;10.702;2023-01-15T01:55:25;97258.81;;;8.60;100.00
45621;BME280;31345;51.522;10.702;2023-01-15T01:58:01;97264.44;;;8.66;100.00
45621;BME280;31345;51.522;10.702;2023-01-15T02:00:37;97261.53;;;8.59;100.00
45621;BME280;31345;51.522;10.702;2023-01-15T02:03:07;97259.47;;;8.63;100.00
45621;BME280;31345;51.522;10.702;2023-01-15T02:05:45;97254.72;;;8.68;100.00
45621;BME280;31345;51.522;10.702;2023-01-15T02:08:18;97260.84;;;8.67;100.00
45621;BME280;31345;51.522;10.702;2023-01-15T02:10:54;97262.66;;;8.66;100.00
45621;BME280;31345;51.522;10.702;2023-01-15T02:13:34;97263.75;;;8.73;100.00
45621;BME280;31345;51.522;10.702;2023-01-15T02:16:09;97262.09;;;8.72;100.00
45621;BME280;31345;51.522;10.702;2023-01-15T02:18:46;97264.69;;;8.72;100.00
45621;BME280;31345;51.522;10.702;2023-01-15T02:21:25;97264.56;;;8.64;100.00
45621;BME280;31345;51.522;10.702;2023-01-15T02:24:06;97264.41;;;8.56;100.00
45621;BME280;31345;51.522;10.702;2023-01-15T02:27:06;97276.88;;;8.52;100.00
45621;BME280;31345;51.522;10.702;2023-01-15T02:29:48;97279.63;;;8.51;100.00
45621;BME280;31345;51.522;10.702;2023-01-15T02:32:27;97276.72;;;8.44;100.00
45621;BME280;31345;51.522;10.702;2023-01-15T02:35:06;97279.84;;;8.38;100.00
45621;BME280;31345;51.522;10.702;2023-01-15T02:37:47;97282.88;;;8.33;100.00
45621;BME280;31345;51.522;10.702;2023-01-15T02:40:22;97283.78;;;8.32;100.00
45621;BME280;31345;51.522;10.702;2023-01-15T02:42:53;97284.75;;;8.31;100.00
45621;BME280;31345;51.522;10.702;2023-01-15T02:45:30;97290.47;;;8.25;100.00
45621;BME280;31345;51.522;10.702;2023-01-15T02:48:07;97292.16;;;8.26;100.00
45621;BME280;31345;51.522;10.702;2023-01-15T02:50:44;97297.75;;;8.21;100.00
45621;BME280;31345;51.522;10.702;2023-01-15T02:53:18;97306.63;;;8.18;100.00
45621;BME280;31345;51.522;10.702;2023-01-15T02:55:51;97297.44;;;8.14;100.00
45621;BME280;31345;51.522;10.702;2023-01-15T02:58:35;97307.69;;;8.06;100.00
45621;BME280;31345;51.522;10.702;2023-01-15T03:01:09;97317.78;;;7.99;100.00
45621;BME280;31345;51.522;10.702;2023-01-15T03:03:43;97319.38;;;7.90;100.00
45621;BME280;31345;51.522;10.702;2023-01-15T03:06:21;97316.34;;;7.64;100.00
45621;BME280;31345;51.522;10.702;2023-01-15T03:08:52;97313.28;;;7.59;100.00
45621;BME280;31345;51.522;10.702;2023-01-15T03:11:24;97312.84;;;7.42;100.00
45621;BME280;31345;51.522;10.702;2023-01-15T03:14:06;97333.97;;;7.27;100.00
45621;BME280;31345;51.522;10.702;2023-01-15T03:16:44;97347.25;;;7.13;100.00
45621;BME280;31345;51.522;10.702;2023-01-15T03:19:20;97343.22;;;7.09;100.00
45621;BME280;31345;51.522;10.702;2023-01-15T03:21:58;97331.16;;;6.75;100.00
45621;BME280;31345;51.522;10.702;2023-01-15T03:24:38;97331.97;;;6.75;100.00
45621;BME280;31345;51.522;10.702;2023-01-15T03:27:13;97357.97;;;6.52;100.00
45621;BME280;31345;51.522;10.702;2023-01-15T03:29:54;97368.69;;;6.48;100.00
45621;BME280;31345;51.522;10.702;2023-01-15T03:32:22;97372.81;;;6.16;100.00
45621;BME280;31345;51.522;10.702;2023-01-15T03:34:56;97377.38;;;6.12;100.00
45621;BME280;31345;51.522;10.702;2023-01-15T03:37:29;97383.41;;;6.13;100.00
45621;BME280;31345;51.522;10.702;2023-01-15T03:40:03;97380.47;;;6.06;100.00
45621;BME280;31345;51.522;10.702;2023-01-15T03:42:45;97405.38;;;5.84;100.00
45621;BME280;31345;51.522;10.702;2023-01-15T03:45:44;97397.06;;;5.92;100.00
45621;BME280;31345;51.522;10.702;2023-01-15T03:48:22;97410.03;;;5.92;100.00
45621;BME280;31345;51.522;10.702;2023-01-15T03:51:05;97415.06;;;5.82;100.00
45621;BME280;31345;51.522;10.702;2023-01-15T03:53:44;97412.22;;;5.74;100.00
45621;BME280;31345;51.522;10.702;2023-01-15T03:56:29;97403.78;;;5.59;100.00
45621;BME280;31345;51.522;10.702;2023-01-15T03:59:09;97399.78;;;5.55;100.00
45621;BME280;31345;51.522;10.702;2023-01-15T04:01:52;97419.00;;;5.39;100.00
45621;BME280;31345;51.522;10.702;2023-01-15T04:04:27;97434.59;;;5.26;100.00
45621;BME280;31345;51.522;10.702;2023-01-15T04:06:56;97429.03;;;5.44;100.00
45621;BME280;31345;51.522;10.702;2023-01-15T04:09:31;97430.09;;;5.41;100.00
45621;BME280;31345;51.522;10.702;2023-01-15T04:12:05;97427.44;;;5.30;100.00
45621;BME280;31345;51.522;10.702;2023-01-15T04:14:44;97418.28;;;5.13;100.00
45621;BME280;31345;51.522;10.702;2023-01-15T04:17:18;97438.75;;;5.29;100.00
45621;BME280;31345;51.522;10.702;2023-01-15T04:19:50;97435.84;;;5.33;100.00
45621;BME280;31345;51.522;10.702;2023-01-15T04:22:23;97436.22;;;5.40;100.00
45621;BME280;31345;51.522;10.702;2023-01-15T04:24:56;97442.59;;;5.23;100.00
45621;BME280;31345;51.522;10.702;2023-01-15T04:27:28;97438.25;;;5.23;100.00
45621;BME280;31345;51.522;10.702;2023-01-15T04:30:02;97428.94;;;5.21;100.00
45621;BME280;31345;51.522;10.702;2023-01-15T04:32:36;97432.50;;;5.07;100.00
45621;BME280;31345;51.522;10.702;2023-01-15T04:35:08;97421.69;;;5.13;100.00
45621;BME280;31345;51.522;10.702;2023-01-15T04:37:41;97413.09;;;5.13;100.00
45621;BME280;31345;51.522;10.702;2023-01-15T04:40:14;97406.78;;;5.17;100.00
45621;BME280;31345;51.522;10.702;2023-01-15T04:43:01;97409.28;;;5.05;100.00
45621;BME280;31345;51.522;10.702;2023-01-15T04:45:51;97401.41;;;5.07;100.00
45621;BME280;31345;51.522;10.702;2023-01-15T04:48:25;97393.63;;;5.07;100.00
45621;BME280;31345;51.522;10.702;2023-01-15T04:51:01;97392.97;;;5.16;100.00
45621;BME280;31345;51.522;10.702;2023-01-15T04:53:34;97401.78;;;5.14;100.00
45621;BME280;31345;51.522;10.702;2023-01-15T04:56:06;97402.38;;;4.93;100.00
45621;BME280;31345;51.522;10.702;2023-01-15T04:58:39;97412.56;;;5.07;100.00
45621;BME280;31345;51.522;10.702;2023-01-15T05:01:12;97410.44;;;5.01;100.00
45621;BME280;31345;51.522;10.702;2023-01-15T05:03:43;97405.97;;;5.03;100.00
45621;BME280;31345;51.522;10.702;2023-01-15T05:06:16;97409.78;;;5.10;100.00
45621;BME280;31345;51.522;10.702;2023-01-15T05:08:48;97398.94;;;5.05;100.00
45621;BME280;31345;51.522;10.702;2023-01-15T05:11:21;97391.38;;;5.02;100.00
45621;BME280;31345;51.522;10.702;2023-01-15T05:13:54;97389.91;;;5.11;100.00
45621;BME280;31345;51.522;10.702;2023-01-15T05:16:27;97399.59;;;5.20;100.00
45621;BME280;31345;51.522;10.702;2023-01-15T05:19:03;97390.38;;;5.16;100.00
45621;BME280;31345;51.522;10.702;2023-01-15T05:21:39;97394.84;;;5.14;100.00
45621;BME280;31345;51.522;10.702;2023-01-15T05:24:14;97402.44;;;5.04;100.00
45621;BME280;31345;51.522;10.702;2023-01-15T05:26:47;97405.78;;;4.93;100.00
45621;BME280;31345;51.522;10.702;2023-01-15T05:29:19;97405.47;;;4.98;100.00
45621;BME280;31345;51.522;10.702;2023-01-15T05:31:52;97402.13;;;4.96;100.00
45621;BME280;31345;51.522;10.702;2023-01-15T05:34:21;97406.13;;;4.89;100.00
45621;BME280;31345;51.522;10.702;2023-01-15T05:36:49;97411.06;;;4.92;100.00
45621;BME280;31345;51.522;10.702;2023-01-15T05:39:21;97409.59;;;5.01;100.00
45621;BME280;31345;51.522;10.702;2023-01-15T05:41:49;97415.50;;;5.03;100.00
45621;BME280;31345;51.522;10.702;2023-01-15T05:44:23;97406.13;;;5.13;100.00
45621;BME280;31345;51.522;10.702;2023-01-15T05:46:53;97405.44;;;5.11;100.00
45621;BME280;31345;51.522;10.702;2023-01-15T05:49:28;97405.66;;;5.08;100.00
45621;BME280;31345;51.522;10.702;2023-01-15T05:51:57;97387.72;;;5.05;100.00
45621;BME280;31345;51.522;10.702;2023-01-15T05:54:28;97384.44;;;5.03;100.00
45621;BME280;31345;51.522;10.702;2023-01-15T05:56:57;97376.03;;;4.99;100.00
45621;BME280;31345;51.522;10.702;2023-01-15T05:59:26;97372.78;;;5.08;100.00
45621;BME280;31345;51.522;10.702;2023-01-15T06:01:59;97372.63;;;5.23;100.00
45621;BME280;31345;51.522;10.702;2023-01-15T06:04:33;97366.13;;;5.17;100.00
45621;BME280;31345;51.522;10.702;2023-01-15T06:07:06;97366.59;;;5.22;100.00
45621;BME280;31345;51.522;10.702;2023-01-15T06:09:38;97384.09;;;5.32;100.00
45621;BME280;31345;51.522;10.702;2023-01-15T06:12:11;97377.22;;;5.19;100.00
45621;BME280;31345;51.522;10.702;2023-01-15T06:14:43;97374.63;;;5.19;100.00
45621;BME280;31345;51.522;10.702;2023-01-15T06:17:16;97374.94;;;5.15;99.15
45621;BME280;31345;51.522;10.702;2023-01-15T06:19:45;97378.66;;;5.23;95.71
45621;BME280;31345;51.522;10.702;2023-01-15T06:22:17;97374.63;;;5.19;94.37
45621;BME280;31345;51.522;10.702;2023-01-15T06:24:50;97381.19;;;5.12;95.07
45621;BME280;31345;51.522;10.702;2023-01-15T06:27:19;97391.44;;;5.14;94.20
45621;BME280;31345;51.522;10.702;2023-01-15T06:29:52;97395.88;;;5.11;93.41
45621;BME280;31345;51.522;10.702;2023-01-15T06:32:25;97403.94;;;5.20;100.00
45621;BME280;31345;51.522;10.702;2023-01-15T06:34:54;97401.13;;;4.98;97.28
45621;BME280;31345;51.522;10.702;2023-01-15T06:37:21;97394.84;;;5.14;95.50
45621;BME280;31345;51.522;10.702;2023-01-15T06:39:53;97400.00;;;4.90;98.62
45621;BME280;31345;51.522;10.702;2023-01-15T06:42:26;97414.19;;;4.84;100.00
45621;BME280;31345;51.522;10.702;2023-01-15T06:45:11;97413.41;;;4.70;100.00
45621;BME280;31345;51.522;10.702;2023-01-15T06:47:57;97428.59;;;4.75;100.00
45621;BME280;31345;51.522;10.702;2023-01-15T06:50:31;97418.78;;;4.67;98.13
45621;BME280;31345;51.522;10.702;2023-01-15T06:53:03;97424.88;;;4.79;100.00
45621;BME280;31345;51.522;10.702;2023-01-15T06:55:36;97419.84;;;4.65;100.00
45621;BME280;31345;51.522;10.702;2023-01-15T06:58:03;97424.25;;;4.76;98.18
45621;BME280;31345;51.522;10.702;2023-01-15T07:00:36;97427.06;;;4.72;100.00
45621;BME280;31345;51.522;10.702;2023-01-15T07:03:04;97432.97;;;4.75;100.00
45621;BME280;31345;51.522;10.702;2023-01-15T07:05:33;97438.47;;;4.70;100.00
45621;BME280;31345;51.522;10.702;2023-01-15T07:08:05;97438.75;;;4.65;100.00
45621;BME280;31345;51.522;10.702;2023-01-15T07:10:38;97437.41;;;4.59;100.00
45621;BME280;31345;51.522;10.702;2023-01-15T07:13:11;97440.94;;;4.58;100.00
45621;BME280;31345;51.522;10.702;2023-01-15T07:15:44;97430.00;;;4.55;100.00
45621;BME280;31345;51.522;10.702;2023-01-15T07:18:11;97412.38;;;4.60;100.00
45621;BME280;31345;51.522;10.702;2023-01-15T07:20:45;97425.22;;;4.49;100.00
45621;BME280;31345;51.522;10.702;2023-01-15T07:23:17;97430.28;;;4.37;100.00
45621;BME280;31345;51.522;10.702;2023-01-15T07:25:45;97441.47;;;4.51;100.00
45621;BME280;31345;51.522;10.702;2023-01-15T07:28:17;97452.75;;;4.50;100.00
45621;BME280;31345;51.522;10.702;2023-01-15T07:30:50;97451.81;;;4.38;100.00
45621;BME280;31345;51.522;10.702;2023-01-15T07:33:17;97455.66;;;4.45;100.00
45621;BME280;31345;51.522;10.702;2023-01-15T07:35:51;97454.28;;;4.52;100.00
45621;BME280;31345;51.522;10.702;2023-01-15T07:38:24;97445.81;;;4.37;100.00
45621;BME280;31345;51.522;10.702;2023-01-15T07:40:54;97452.84;;;4.48;100.00
45621;BME280;31345;51.522;10.702;2023-01-15T07:43:36;97450.25;;;4.48;100.00
45621;BME280;31345;51.522;10.702;2023-01-15T07:46:26;97463.41;;;4.58;100.00
45621;BME280;31345;51.522;10.702;2023-01-15T07:49:15;97461.16;;;4.53;100.00
45621;BME280;31345;51.522;10.702;2023-01-15T07:52:17;97462.06;;;4.52;100.00
45621;BME280;31345;51.522;10.702;2023-01-15T07:54:50;97463.72;;;4.53;100.00
45621;BME280;31345;51.522;10.702;2023-01-15T07:57:19;97474.19;;;4.52;100.00
45621;BME280;31345;51.522;10.702;2023-01-15T07:59:52;97468.47;;;4.59;100.00
45621;BME280;31345;51.522;10.702;2023-01-15T08:02:24;97464.63;;;4.52;100.00
45621;BME280;31345;51.522;10.702;2023-01-15T08:04:52;97476.25;;;4.46;100.00
45621;BME280;31345;51.522;10.702;2023-01-15T08:07:26;97481.97;;;4.65;100.00
45621;BME280;31345;51.522;10.702;2023-01-15T08:09:53;97490.94;;;4.72;100.00
45621;BME280;31345;51.522;10.702;2023-01-15T08:12:26;97485.16;;;4.68;100.00
45621;BME280;31345;51.522;10.702;2023-01-15T08:15:16;97494.16;;;4.76;100.00
45621;BME280;31345;51.522;10.702;2023-01-15T08:17:45;97495.91;;;4.75;100.00
45621;BME280;31345;51.522;10.702;2023-01-15T08:20:15;97504.44;;;4.77;100.00
45621;BME280;31345;51.522;10.702;2023-01-15T08:22:49;97511.97;;;4.80;100.00
45621;BME280;31345;51.522;10.702;2023-01-15T08:25:23;97517.47;;;4.89;100.00
45621;BME280;31345;51.522;10.702;2023-01-15T08:27:52;97509.72;;;4.89;100.00
45621;BME280;31345;51.522;10.702;2023-01-15T08:30:21;97520.88;;;4.89;100.00
45621;BME280;31345;51.522;10.702;2023-01-15T08:32:51;97519.94;;;4.90;100.00
45621;BME280;31345;51.522;10.702;2023-01-15T08:35:24;97500.34;;;4.86;100.00
45621;BME280;31345;51.522;10.702;2023-01-15T08:37:58;97524.31;;;4.90;100.00
45621;BME280;31345;51.522;10.702;2023-01-15T08:40:30;97526.69;;;4.93;100.00
45621;BME280;31345;51.522;10.702;2023-01-15T08:42:58;97533.72;;;4.91;100.00
45621;BME280;31345;51.522;10.702;2023-01-15T08:45:25;97534.03;;;4.99;100.00
45621;BME280;31345;51.522;10.702;2023-01-15T08:47:58;97530.41;;;5.02;100.00
45621;BME280;31345;51.522;10.702;2023-01-15T08:50:30;97540.16;;;4.98;100.00
45621;BME280;31345;51.522;10.702;2023-01-15T08:52:59;97533.94;;;5.01;100.00
45621;BME280;31345;51.522;10.702;2023-01-15T08:55:32;97536.91;;;5.07;100.00
45621;BME280;31345;51.522;10.702;2023-01-15T08:57:59;97541.41;;;5.05;100.00
45621;BME280;31345;51.522;10.702;2023-01-15T09:00:27;97541.28;;;5.07;100.00
45621;BME280;31345;51.522;10.702;2023-01-15T09:02:54;97542.19;;;5.06;100.00
45621;BME280;31345;51.522;10.702;2023-01-15T09:05:26;97553.19;;;5.09;100.00
45621;BME280;31345;51.522;10.702;2023-01-15T09:08:00;97551.53;;;5.08;100.00
45621;BME280;31345;51.522;10.702;2023-01-15T09:10:33;97547.38;;;5.06;100.00
45621;BME280;31345;51.522;10.702;2023-01-15T09:13:06;97545.94;;;5.02;100.00
45621;BME280;31345;51.522;10.702;2023-01-15T09:15:38;97531.53;;;4.97;100.00
45621;BME280;31345;51.522;10.702;2023-01-15T09:18:11;97529.25;;;5.06;100.00
45621;BME280;31345;51.522;10.702;2023-01-15T09:20:46;97526.06;;;5.02;100.00
45621;BME280;31345;51.522;10.702;2023-01-15T09:23:15;97538.16;;;5.02;100.00
45621;BME280;31345;51.522;10.702;2023-01-15T09:25:51;97535.28;;;5.06;100.00
45621;BME280;31345;51.522;10.702;2023-01-15T09:28:26;97541.81;;;4.99;100.00
45621;BME280;31345;51.522;10.702;2023-01-15T09:31:00;97537.47;;;5.00;100.00
45621;BME280;31345;51.522;10.702;2023-01-15T09:33:27;97544.09;;;5.04;100.00
45621;BME280;31345;51.522;10.702;2023-01-15T09:36:00;97550.22;;;5.03;100.00
45621;BME280;31345;51.522;10.702;2023-01-15T09:38:34;97547.38;;;5.06;100.00
45621;BME280;31345;51.522;10.702;2023-01-15T09:41:08;97554.53;;;5.02;100.00
45621;BME280;31345;51.522;10.702;2023-01-15T09:44:18;97550.22;;;5.03;100.00
45621;BME280;31345;51.522;10.702;2023-01-15T09:47:03;97552.16;;;4.99;100.00
45621;BME280;31345;51.522;10.702;2023-01-15T09:49:48;97554.34;;;5.05;100.00
45621;BME280;31345;51.522;10.702;2023-01-15T09:52:25;97546.97;;;4.99;100.00
45621;BME280;31345;51.522;10.702;2023-01-15T09:55:04;97554.25;;;5.07;100.00
45621;BME280;31345;51.522;10.702;2023-01-15T09:57:41;97549.25;;;5.04;100.00
45621;BME280;31345;51.522;10.702;2023-01-15T10:00:16;97548.22;;;5.06;100.00
45621;BME280;31345;51.522;10.702;2023-01-15T10:02:47;97560.34;;;5.06;100.00
45621;BME280;31345;51.522;10.702;2023-01-15T10:05:23;97556.19;;;5.03;100.00
45621;BME280;31345;51.522;10.702;2023-01-15T10:07:57;97570.94;;;5.03;100.00
45621;BME280;31345;51.522;10.702;2023-01-15T10:10:37;97572.69;;;5.02;100.00
45621;BME280;31345;51.522;10.702;2023-01-15T10:13:20;97563.25;;;5.01;100.00
45621;BME280;31345;51.522;10.702;2023-01-15T10:15:50;97558.88;;;5.02;100.00
45621;BME280;31345;51.522;10.702;2023-01-15T10:18:20;97555.50;;;5.01;100.00
45621;BME280;31345;51.522;10.702;2023-01-15T10:21:06;97558.09;;;5.01;100.00
45621;BME280;31345;51.522;10.702;2023-01-15T10:23:45;97556.09;;;5.05;100.00
45621;BME280;31345;51.522;10.702;2023-01-15T10:26:29;97565.75;;;5.03;100.00
45621;BME280;31345;51.522;10.702;2023-01-15T10:29:10;97572.25;;;5.08;100.00
45621;BME280;31345;51.522;10.702;2023-01-15T10:31:49;97570.59;;;5.07;100.00
45621;BME280;31345;51.522;10.702;2023-01-15T10:34:39;97568.66;;;5.11;100.00
45621;BME280;31345;51.522;10.702;2023-01-15T10:37:21;97561.88;;;5.08;100.00
45621;BME280;31345;51.522;10.702;2023-01-15T10:40:11;97569.34;;;5.13;100.00
45621;BME280;31345;51.522;10.702;2023-01-15T10:42:55;97564.28;;;5.11;100.00
45621;BME280;31345;51.522;10.702;2023-01-15T10:45:34;97559.00;;;5.13;100.00
45621;BME280;31345;51.522;10.702;2023-01-15T10:48:13;97557.25;;;5.14;100.00
45621;BME280;31345;51.522;10.702;2023-01-15T10:50:50;97557.44;;;5.10;100.00
45621;BME280;31345;51.522;10.702;2023-01-15T10:53:28;97555.47;;;5.14;100.00
45621;BME280;31345;51.522;10.702;2023-01-15T10:56:07;97553.72;;;5.15;100.00
45621;BME280;31345;51.522;10.702;2023-01-15T10:58:44;97555.47;;;5.14;100.00
45621;BME280;31345;51.522;10.702;2023-01-15T11:01:19;97560.44;;;5.17;99.65
45621;BME280;31345;51.522;10.702;2023-01-15T11:03:48;97560.22;;;5.20;99.63
45621;BME280;31345;51.522;10.702;2023-01-15T11:06:18;97563.53;;;5.22;99.82
45621;BME280;31345;51.522;10.702;2023-01-15T11:08:52;97565.31;;;5.22;99.51
45621;BME280;31345;51.522;10.702;2023-01-15T11:11:23;97558.25;;;5.24;99.68
45621;BME280;31345;51.522;10.702;2023-01-15T11:14:07;97554.63;;;5.27;96.96
45621;BME280;31345;51.522;10.702;2023-01-15T11:16:52;97563.31;;;5.26;98.83
45621;BME280;31345;51.522;10.702;2023-01-15T11:19:38;97558.16;;;5.26;98.06
45621;BME280;31345;51.522;10.702;2023-01-15T11:22:14;97550.06;;;5.30;98.51
45621;BME280;31345;51.522;10.702;2023-01-15T11:24:48;97561.97;;;5.33;96.55
45621;BME280;31345;51.522;10.702;2023-01-15T11:27:18;97561.28;;;5.31;97.65
45621;BME280;31345;51.522;10.702;2023-01-15T11:29:54;97537.31;;;5.27;99.05
45621;BME280;31345;51.522;10.702;2023-01-15T11:32:29;97553.59;;;5.29;98.93
45621;BME280;31345;51.522;10.702;2023-01-15T11:35:13;97556.19;;;5.29;96.97
45621;BME280;31345;51.522;10.702;2023-01-15T11:37:46;97561.47;;;5.28;97.39
45621;BME280;31345;51.522;10.702;2023-01-15T11:40:15;97555.84;;;5.34;96.19
45621;BME280;31345;51.522;10.702;2023-01-15T11:42:45;97566.56;;;5.29;98.35
45621;BME280;31345;51.522;10.702;2023-01-15T11:45:46;97554.19;;;5.33;97.81
45621;BME280;31345;51.522;10.702;2023-01-15T11:48:44;97544.69;;;5.33;97.67
45621;BME280;31345;51.522;10.702;2023-01-15T11:51:37;97541.34;;;5.31;97.38
45621;BME280;31345;51.522;10.702;2023-01-15T11:54:14;97546.31;;;5.34;94.22
45621;BME280;31345;51.522;10.702;2023-01-15T11:56:44;97554.69;;;5.38;96.44
45621;BME280;31345;51.522;10.702;2023-01-15T11:59:14;97546.22;;;5.36;94.35
45621;BME280;31345;51.522;10.702;2023-01-15T12:01:49;97543.41;;;5.39;94.60
45621;BME280;31345;51.522;10.702;2023-01-15T12:04:34;97560.72;;;5.39;96.07
45621;BME280;31345;51.522;10.702;2023-01-15T12:07:12;97549.41;;;5.40;95.48
45621;BME280;31345;51.522;10.702;2023-01-15T12:10:02;97562.06;;;5.44;92.23
45621;BME280;31345;51.522;10.702;2023-01-15T12:12:46;97570.25;;;5.38;93.20
45621;BME280;31345;51.522;10.702;2023-01-15T12:15:36;97566.75;;;5.39;90.70
45621;BME280;31345;51.522;10.702;2023-01-15T12:18:32;97572.13;;;5.36;92.10
45621;BME280;31345;51.522;10.702;2023-01-15T12:21:23;97582.81;;;5.44;92.52
45621;BME280;31345;51.522;10.702;2023-01-15T12:24:13;97573.47;;;5.55;92.45
45621;BME280;31345;51.522;10.702;2023-01-15T12:26:57;97578.38;;;5.71;91.07
45621;BME280;31345;51.522;10.702;2023-01-15T12:29:37;97592.91;;;5.73;91.58
45621;BME280;31345;51.522;10.702;2023-01-15T12:32:16;97583.19;;;5.88;91.84
45621;BME280;31345;51.522;10.702;2023-01-15T12:34:54;97570.41;;;5.74;88.21
45621;BME280;31345;51.522;10.702;2023-01-15T12:37:25;97586.38;;;5.68;91.09
45621;BME280;31345;51.522;10.702;2023-01-15T12:39:57;97586.44;;;5.79;90.28
45621;BME280;31345;51.522;10.702;2023-01-15T12:42:36;97590.41;;;5.72;90.41
45621;BME280;31345;51.522;10.702;2023-01-15T12:45:24;97590.81;;;5.79;91.13
45621;BME280;31345;51.522;10.702;2023-01-15T12:47:56;97584.25;;;5.86;89.18
45621;BME280;31345;51.522;10.702;2023-01-15T12:50:37;97584.09;;;6.00;90.83
45621;BME280;31345;51.522;10.702;2023-01-15T12:53:19;97567.94;;;5.97;90.11
45621;BME280;31345;51.522;10.702;2023-01-15T12:55:55;97580.91;;;5.97;87.92
45621;BME280;31345;51.522;10.702;2023-01-15T12:58:34;97579.06;;;5.86;90.13
45621;BME280;31345;51.522;10.702;2023-01-15T13:01:14;97574.59;;;5.88;89.91
45621;BME280;31345;51.522;10.702;2023-01-15T13:03:57;97578.34;;;5.84;90.64
45621;BME280;31345;51.522;10.702;2023-01-15T13:06:33;97588.44;;;5.75;92.20
45621;BME280;31345;51.522;10.702;2023-01-15T13:09:12;97588.13;;;6.05;90.38
45621;BME280;31345;51.522;10.702;2023-01-15T13:11:45;97583.72;;;5.94;88.63
45621;BME280;31345;51.522;10.702;2023-01-15T13:14:19;97587.06;;;5.83;90.13
45621;BME280;31345;51.522;10.702;2023-01-15T13:16:56;97586.53;;;5.91;89.02
45621;BME280;31345;51.522;10.702;2023-01-15T13:19:37;97598.03;;;5.99;90.02
45621;BME280;31345;51.522;10.702;2023-01-15T13:22:19;97601.13;;;5.92;86.20
45621;BME280;31345;51.522;10.702;2023-01-15T13:25:04;97608.63;;;5.83;85.14
45621;BME280;31345;51.522;10.702;2023-01-15T13:27:56;97611.13;;;5.85;84.51
45621;BME280;31345;51.522;10.702;2023-01-15T13:30:47;97626.19;;;5.80;87.79
45621;BME280;31345;51.522;10.702;2023-01-15T13:33:26;97618.81;;;5.73;84.98
45621;BME280;31345;51.522;10.702;2023-01-15T13:36:02;97614.91;;;5.68;83.71